VAM | Vabird-VBD

Virtual Vabird! Aerolínea Virtual de habla hispana, desde 2011




 INFORMACIÓN METAR y TAF
METAR FOR SPZO
ADDS - METARS form results

(1933 UTC 12 June 2021)
Data provider http://aviationweather.gov/metar/data/
 
METAR text: SPZO 121930Z 35010KT 9999 SCT046 19/01 Q1028 NOSIG RMK BIRD HAZARD RWY 28
Conditions at: SPZO (CUZCO/VELAZCO AS, PE) observed 1930 UTC 12 June 2021
Temperature: 19.0°C (66°F)
Dewpoint: 1.0°C (34°F) [RH = 30%]
Pressure (altimeter): 30.35 inches Hg (1028.0 mb)
Winds: from the N (350 degrees) at 12 MPH (10 knots; 5.1 m/s)
Visibility: 6 or more miles (10+ km)
Ceiling: at least 12,000 feet AGL
Clouds: scattered clouds at 4600 feet AGL
Weather: no significant weather observed at this time

METAR text: SPZO 121900Z 31010KT 9999 SCT046 19/02 Q1029 NOSIG RMK BIRD HAZARD RWY 28 PP000
Conditions at: SPZO (CUZCO/VELAZCO AS, PE) observed 1900 UTC 12 June 2021
Temperature: 19.0°C (66°F)
Dewpoint: 2.0°C (36°F) [RH = 32%]
Pressure (altimeter): 30.38 inches Hg (1029.0 mb)
Winds: from the NW (310 degrees) at 12 MPH (10 knots; 5.1 m/s)
Visibility: 6 or more miles (10+ km)
Ceiling: at least 12,000 feet AGL
Clouds: scattered clouds at 4600 feet AGL
Weather: no significant weather observed at this time

Forecast for: SPZO (CUZCO/VELAZCO AS, PE)
Text: TAF SPZO 121700Z 1218/1318 33005KT 9999 SCT040 BKN080 TX18/1219Z TN02/1311Z
Forecast period: 1800 UTC 12 June 2021 to 1800 UTC 13 June 2021
Forecast type: FROM: standard forecast or significant change
Winds: from the NNW (330 degrees) at 6 MPH (5 knots; 2.6 m/s)
Visibility: 6 or more miles (10+ km)
Ceiling: 8000 feet AGL
Clouds: scattered clouds at 4000 feet AGL
broken clouds at 8000 feet AGL
Weather: no significant weather forecast for this period
Text: TEMPO 1219/1222 FEW040TCU BKN080
Forecast period: 1900 to 2200 UTC 12 June 2021
Forecast type: TEMPORARY: The following changes expected for less than half the time period
Visibility: missing
Ceiling: 8000 feet AGL
Clouds: few clouds at 4000 feet AGL
broken clouds at 8000 feet AGL
Weather: no significant weather forecast for this period

 MAPA DE AEROPUERTO

 INFORMACIÓN DE PISTA